createdAt,value
2018-09-15T00:00:02.146Z,1002.06
2018-09-15T00:01:08.553Z,1002.07
2018-09-15T00:02:14.937Z,1002.09
2018-09-15T00:03:21.795Z,1002.11
2018-09-15T00:04:27.233Z,1002.08
2018-09-15T00:05:34.128Z,1002.11
2018-09-15T00:06:40.012Z,1002.08
2018-09-15T00:07:46.909Z,1002.10
2018-09-15T00:08:53.791Z,1002.11
2018-09-15T00:09:59.285Z,1002.09
2018-09-15T00:11:06.084Z,1002.08
2018-09-15T00:12:11.970Z,1002.10
2018-09-15T00:13:18.347Z,1002.12
2018-09-15T00:14:24.741Z,1002.08
2018-09-15T00:15:31.619Z,1002.12
2018-09-15T00:16:38.012Z,1002.07
2018-09-15T00:17:43.889Z,1002.08
2018-09-15T00:18:50.778Z,1002.08
2018-09-15T00:19:57.287Z,1002.05
2018-09-15T00:21:03.050Z,1002.01
2018-09-15T00:22:09.927Z,1002.05
2018-09-15T00:23:15.818Z,1002.01
2018-09-15T00:24:22.189Z,1001.98
2018-09-15T00:25:29.056Z,1002.01
2018-09-15T00:26:34.944Z,1001.98
2018-09-15T00:27:41.320Z,1002.02
2018-09-15T00:28:48.198Z,1002.01
2018-09-15T00:29:54.566Z,1002.01
2018-09-15T00:31:00.439Z,1001.98
2018-09-15T00:32:06.821Z,1001.98
2018-09-15T00:33:13.294Z,1001.95
2018-09-15T00:34:20.048Z,1002.03
2018-09-15T00:35:26.421Z,1002.05
2018-09-15T00:36:32.299Z,1002.09
2018-09-15T00:37:39.138Z,1002.11
2018-09-15T00:38:45.517Z,1002.12
2018-09-15T00:39:51.392Z,1002.13
2018-09-15T00:40:57.754Z,1002.11
2018-09-15T00:42:04.104Z,1002.15
2018-09-15T00:43:10.957Z,1002.13
2018-09-15T00:44:17.325Z,1002.17
2018-09-15T00:45:23.278Z,1002.15
2018-09-15T00:46:30.034Z,1002.21
2018-09-15T00:47:35.895Z,1002.19
2018-09-15T00:48:42.245Z,1002.20
2018-09-15T00:49:48.601Z,1002.18
2018-09-15T00:50:54.945Z,1002.23
2018-09-15T00:52:01.812Z,1002.26
2018-09-15T00:53:07.653Z,1002.28
2018-09-15T00:54:14.497Z,1002.31
2018-09-15T00:55:20.842Z,1002.32
2018-09-15T00:56:26.696Z,1002.33
2018-09-15T00:57:33.034Z,1002.32
2018-09-15T00:58:39.384Z,1002.34
2018-09-15T00:59:45.708Z,1002.30
2018-09-15T01:00:52.540Z,1002.34
2018-09-15T01:01:58.393Z,1002.35
2018-09-15T01:03:04.710Z,1002.33
2018-09-15T01:04:11.525Z,1002.39
2018-09-15T01:05:17.870Z,1002.33
2018-09-15T01:06:23.706Z,1002.35
2018-09-15T01:07:30.546Z,1002.32
2018-09-15T01:08:36.364Z,1002.33
2018-09-15T01:09:42.685Z,1002.30
2018-09-15T01:10:49.513Z,1002.33
2018-09-15T01:11:55.842Z,1002.34
2018-09-15T01:13:01.670Z,1002.38
2018-09-15T01:14:08.044Z,1002.42
2018-09-15T01:15:14.319Z,1002.40
2018-09-15T01:16:20.626Z,1002.38
2018-09-15T01:17:27.489Z,1002.40
2018-09-15T01:18:33.759Z,1002.41
2018-09-15T01:19:39.581Z,1002.39
2018-09-15T01:20:45.940Z,1002.40
2018-09-15T01:21:52.222Z,1002.41
2018-09-15T01:22:59.060Z,1002.41
2018-09-15T01:24:05.348Z,1002.39
2018-09-15T01:25:11.653Z,1002.41
2018-09-15T01:26:17.978Z,1002.38
2018-09-15T01:27:23.786Z,1002.42
2018-09-15T01:28:30.625Z,1002.42
2018-09-15T01:29:36.913Z,1002.42
2018-09-15T01:30:43.278Z,1002.42
2018-09-15T01:31:49.523Z,1002.43
2018-09-15T01:32:55.354Z,1002.38
2018-09-15T01:34:02.159Z,1002.40
2018-09-15T01:35:08.471Z,1002.41
2018-09-15T01:36:14.270Z,1002.41
2018-09-15T01:37:20.576Z,1002.42
2018-09-15T01:38:27.385Z,1002.41
2018-09-15T01:39:33.315Z,1002.41
2018-09-15T01:40:39.993Z,1002.46
2018-09-15T01:41:45.805Z,1002.45
2018-09-15T01:42:52.611Z,1002.45
2018-09-15T01:43:58.900Z,1002.45
2018-09-15T01:45:05.213Z,1002.48
2018-09-15T01:46:11.015Z,1002.51
2018-09-15T01:47:17.784Z,1002.55
2018-09-15T01:48:24.098Z,1002.53
2018-09-15T01:49:29.890Z,1002.54
2018-09-15T01:50:36.686Z,1002.56
2018-09-15T01:51:42.964Z,1002.58
2018-09-15T01:52:49.273Z,1002.57
2018-09-15T01:53:55.579Z,1002.61
2018-09-15T01:55:01.868Z,1002.58
2018-09-15T01:56:07.653Z,1002.59
2018-09-15T01:57:14.459Z,1002.57
2018-09-15T01:58:20.732Z,1002.60
2018-09-15T01:59:27.026Z,1002.62
2018-09-15T02:00:32.815Z,1002.66
2018-09-15T02:01:39.103Z,1002.62
2018-09-15T02:02:45.380Z,1002.64
2018-09-15T02:03:51.670Z,1002.63
2018-09-15T02:04:57.939Z,1002.59
2018-09-15T02:06:04.237Z,1002.62
2018-09-15T02:07:10.511Z,1002.65
2018-09-15T02:08:17.326Z,1002.66
2018-09-15T02:09:23.066Z,1002.67
2018-09-15T02:10:29.352Z,1002.70
2018-09-15T02:11:35.626Z,1002.74
2018-09-15T02:12:42.403Z,1002.66
2018-09-15T02:13:48.689Z,1002.68
2018-09-15T02:14:54.948Z,1002.68
2018-09-15T02:16:00.740Z,1002.71
2018-09-15T02:17:07.020Z,1002.71
2018-09-15T02:18:13.279Z,1002.73
2018-09-15T02:19:19.564Z,1002.73
2018-09-15T02:20:25.841Z,1002.69
2018-09-15T02:21:32.606Z,1002.72
2018-09-15T02:22:38.957Z,1002.72
2018-09-15T02:23:44.666Z,1002.71
2018-09-15T02:24:50.915Z,1002.71
2018-09-15T02:25:57.674Z,1002.70
2018-09-15T02:27:03.945Z,1002.69
2018-09-15T02:28:09.724Z,1002.68
2018-09-15T02:29:16.016Z,1002.73
2018-09-15T02:30:22.777Z,1002.70
2018-09-15T02:31:29.032Z,1002.72
2018-09-15T02:32:35.284Z,1002.74
2018-09-15T02:33:41.560Z,1002.76
2018-09-15T02:34:47.821Z,1002.76
2018-09-15T02:35:53.594Z,1002.82
2018-09-15T02:37:00.345Z,1002.78
2018-09-15T02:38:06.104Z,1002.82
2018-09-15T02:39:12.870Z,1002.81
2018-09-15T02:40:18.615Z,1002.83
2018-09-15T02:41:25.378Z,1002.85
2018-09-15T02:42:32.140Z,1002.85
2018-09-15T02:43:37.894Z,1002.85
2018-09-15T02:44:44.163Z,1002.85
2018-09-15T02:45:50.413Z,1002.87
2018-09-15T02:46:56.673Z,1002.84
2018-09-15T02:48:02.925Z,1002.87
2018-09-15T02:49:09.275Z,1002.83
2018-09-15T02:50:15.436Z,1002.82
2018-09-15T02:51:21.292Z,1002.82
2018-09-15T02:52:27.941Z,1002.78
2018-09-15T02:53:34.192Z,1002.83
2018-09-15T02:54:39.988Z,1002.86
2018-09-15T02:55:46.696Z,1002.87
2018-09-15T02:56:52.945Z,1002.88
2018-09-15T02:57:58.696Z,1002.88
2018-09-15T02:59:05.444Z,1002.94
2018-09-15T03:00:11.287Z,1002.91
2018-09-15T03:01:17.432Z,1002.96
2018-09-15T03:02:23.688Z,1002.93
2018-09-15T03:03:30.437Z,1002.94
2018-09-15T03:04:36.675Z,1002.91
2018-09-15T03:05:42.429Z,1002.94
2018-09-15T03:06:48.672Z,1002.92
2018-09-15T03:07:56.404Z,1002.92
2018-09-15T03:09:01.647Z,1002.91
2018-09-15T03:10:07.912Z,1002.92
2018-09-15T03:11:14.148Z,1002.94
2018-09-15T03:12:20.379Z,1002.95
2018-09-15T03:13:26.133Z,1002.94
2018-09-15T03:14:32.879Z,1002.96
2018-09-15T03:15:38.635Z,1002.91
2018-09-15T03:16:45.371Z,1002.93
2018-09-15T03:17:51.124Z,1002.95
2018-09-15T03:18:57.861Z,1002.97
2018-09-15T03:20:03.621Z,1002.96
2018-09-15T03:21:09.844Z,1002.99
2018-09-15T03:22:16.593Z,1002.98
2018-09-15T03:23:22.363Z,1003.01
2018-09-15T03:24:29.085Z,1002.97
2018-09-15T03:25:35.338Z,1002.99
2018-09-15T03:26:41.077Z,1002.96
2018-09-15T03:27:47.821Z,1002.95
2018-09-15T03:28:54.070Z,1002.94
2018-09-15T03:29:59.819Z,1002.98
2018-09-15T03:31:06.558Z,1002.96
2018-09-15T03:32:12.808Z,1002.98
2018-09-15T03:33:19.048Z,1003.00
2018-09-15T03:34:25.306Z,1002.99
2018-09-15T03:35:31.557Z,1003.01
2018-09-15T03:36:37.302Z,1002.99
2018-09-15T03:37:43.540Z,1002.97
2018-09-15T03:38:49.792Z,1002.96
2018-09-15T03:39:56.064Z,1002.96
2018-09-15T03:41:02.791Z,1003.00
2018-09-15T03:42:09.033Z,1002.99
2018-09-15T03:43:15.282Z,1002.98
2018-09-15T03:44:21.532Z,1002.97
2018-09-15T03:45:27.773Z,1002.93
2018-09-15T03:46:34.037Z,1002.98
2018-09-15T03:47:39.770Z,1002.99
2018-09-15T03:48:46.515Z,1003.03
2018-09-15T03:49:52.752Z,1003.01
2018-09-15T03:50:58.515Z,1003.02
2018-09-15T03:52:04.762Z,1003.00
2018-09-15T03:53:11.489Z,1003.02
2018-09-15T03:54:17.734Z,1003.01
2018-09-15T03:55:24.004Z,1003.00
2018-09-15T03:56:30.238Z,1003.03
2018-09-15T03:57:36.479Z,1003.02
2018-09-15T03:58:42.731Z,1003.03
2018-09-15T03:59:49.006Z,1003.06
2018-09-15T04:00:55.272Z,1003.06
2018-09-15T04:02:00.976Z,1003.02
2018-09-15T04:03:07.690Z,1003.05
2018-09-15T04:04:13.924Z,1003.03
2018-09-15T04:05:19.675Z,1003.08
2018-09-15T04:06:26.416Z,1003.10
2018-09-15T04:07:32.647Z,1003.12
2018-09-15T04:08:38.893Z,1003.17
2018-09-15T04:09:44.635Z,1003.18
2018-09-15T04:10:51.348Z,1003.20
2018-09-15T04:11:57.602Z,1003.19
2018-09-15T04:13:03.348Z,1003.17
2018-09-15T04:14:11.061Z,1003.16
2018-09-15T04:15:15.811Z,1003.21
2018-09-15T04:16:22.060Z,1003.21
2018-09-15T04:17:28.799Z,1003.22
2018-09-15T04:18:35.017Z,1003.20
2018-09-15T04:19:41.294Z,1003.18
2018-09-15T04:20:47.496Z,1003.23
2018-09-15T04:21:53.234Z,1003.22
2018-09-15T04:22:59.472Z,1003.25
2018-09-15T04:24:05.693Z,1003.19
2018-09-15T04:25:11.940Z,1003.25
2018-09-15T04:26:19.292Z,1003.26
2018-09-15T04:27:24.884Z,1003.27
2018-09-15T04:28:31.144Z,1003.28
2018-09-15T04:29:36.856Z,1003.27
2018-09-15T04:30:43.584Z,1003.32
2018-09-15T04:31:49.814Z,1003.34
2018-09-15T04:32:55.557Z,1003.34
2018-09-15T04:34:01.765Z,1003.35
2018-09-15T04:35:07.999Z,1003.39
2018-09-15T04:36:14.228Z,1003.46
2018-09-15T04:37:20.459Z,1003.43
2018-09-15T04:38:27.275Z,1003.47
2018-09-15T04:39:33.395Z,1003.50
2018-09-15T04:40:39.619Z,1003.49
2018-09-15T04:41:45.947Z,1003.50
2018-09-15T04:42:52.066Z,1003.51
2018-09-15T04:43:57.794Z,1003.52
2018-09-15T04:45:04.509Z,1003.53
2018-09-15T04:46:10.238Z,1003.58
2018-09-15T04:47:16.956Z,1003.57
2018-09-15T04:48:23.274Z,1003.61
2018-09-15T04:49:28.889Z,1003.62
2018-09-15T04:50:35.607Z,1003.56
2018-09-15T04:51:41.329Z,1003.58
2018-09-15T04:52:47.617Z,1003.59
2018-09-15T04:53:54.266Z,1003.61
2018-09-15T04:55:00.494Z,1003.59
2018-09-15T04:56:06.230Z,1003.69
2018-09-15T04:57:12.929Z,1003.66
2018-09-15T04:58:19.141Z,1003.66
2018-09-15T04:59:24.875Z,1003.70
2018-09-15T05:00:31.597Z,1003.70
2018-09-15T05:01:37.322Z,1003.69
2018-09-15T05:02:44.038Z,1003.69
2018-09-15T05:03:49.781Z,1003.69
2018-09-15T05:04:56.497Z,1003.68
2018-09-15T05:06:02.708Z,1003.68
2018-09-15T05:07:08.453Z,1003.67
2018-09-15T05:08:15.275Z,1003.68
2018-09-15T05:09:21.404Z,1003.69
2018-09-15T05:10:27.140Z,1003.68
2018-09-15T05:11:33.860Z,1003.69
2018-09-15T05:12:40.135Z,1003.63
2018-09-15T05:13:47.323Z,1003.68
2018-09-15T05:14:52.573Z,1003.68
2018-09-15T05:15:58.313Z,1003.67
2018-09-15T05:17:05.026Z,1003.65
2018-09-15T05:18:11.294Z,1003.65
2018-09-15T05:19:17.516Z,1003.69
2018-09-15T05:20:23.271Z,1003.65
2018-09-15T05:21:30.008Z,1003.64
2018-09-15T05:22:36.720Z,1003.59
2018-09-15T05:23:42.004Z,1003.68
2018-09-15T05:24:48.752Z,1003.69
2018-09-15T05:25:55.009Z,1003.66
2018-09-15T05:27:01.275Z,1003.73
2018-09-15T05:28:07.534Z,1003.66
2018-09-15T05:29:13.291Z,1003.63
2018-09-15T05:30:19.577Z,1003.69
2018-09-15T05:31:26.335Z,1003.61
2018-09-15T05:32:32.587Z,1003.61
2018-09-15T05:33:38.390Z,1003.67
2018-09-15T05:34:44.658Z,1003.70
2018-09-15T05:35:51.439Z,1003.73
2018-09-15T05:36:57.238Z,1003.76
2018-09-15T05:38:04.336Z,1003.77
2018-09-15T05:39:10.303Z,1003.79
2018-09-15T05:40:16.624Z,1003.77
2018-09-15T05:41:22.409Z,1003.78
2018-09-15T05:42:29.273Z,1003.86
2018-09-15T05:43:35.036Z,1003.85
2018-09-15T05:44:42.833Z,1003.87
2018-09-15T05:45:48.136Z,1003.91
2018-09-15T05:46:54.458Z,1003.92
2018-09-15T05:48:00.286Z,1003.96
2018-09-15T05:49:06.591Z,1003.95
2018-09-15T05:50:13.469Z,1004.01
2018-09-15T05:51:19.228Z,1003.94
2018-09-15T05:52:25.551Z,1004.06
2018-09-15T05:53:31.875Z,1004.03
2018-09-15T05:54:38.681Z,1004.09
2018-09-15T05:55:45.013Z,1004.11
2018-09-15T05:56:51.342Z,1004.09
2018-09-15T05:57:57.686Z,1004.08
2018-09-15T05:59:04.014Z,1004.12
2018-09-15T06:00:09.849Z,1004.18
2018-09-15T06:01:16.188Z,1004.14
2018-09-15T06:02:23.019Z,1004.14
2018-09-15T06:03:30.297Z,1004.18
2018-09-15T06:04:35.689Z,1004.26
2018-09-15T06:05:42.029Z,1004.20
2018-09-15T06:06:49.452Z,1004.22
2018-09-15T06:07:55.716Z,1004.25
2018-09-15T06:09:01.069Z,1004.25
2018-09-15T06:10:07.413Z,1004.23
2018-09-15T06:11:13.739Z,1004.22
2018-09-15T06:12:20.086Z,1004.24
2018-09-15T06:13:25.945Z,1004.26
2018-09-15T06:14:32.295Z,1004.25
2018-09-15T06:15:38.639Z,1004.24
2018-09-15T06:16:44.974Z,1004.25
2018-09-15T06:17:51.325Z,1004.23
2018-09-15T06:18:58.199Z,1004.25
2018-09-15T06:20:04.037Z,1004.25
2018-09-15T06:21:10.691Z,1004.28
2018-09-15T06:22:17.269Z,1004.29
2018-09-15T06:23:23.103Z,1004.27
2018-09-15T06:24:29.479Z,1004.31
2018-09-15T06:25:36.291Z,1004.29
2018-09-15T06:26:42.140Z,1004.33
2018-09-15T06:27:48.978Z,1004.37
2018-09-15T06:28:54.851Z,1004.37
2018-09-15T06:30:01.893Z,1004.42
2018-09-15T06:31:08.035Z,1004.39
2018-09-15T06:32:13.888Z,1004.42
2018-09-15T06:33:20.244Z,1004.42
2018-09-15T06:34:26.588Z,1004.50
2018-09-15T06:35:33.431Z,1004.46
2018-09-15T06:36:39.305Z,1004.51
2018-09-15T06:37:45.655Z,1004.46
2018-09-15T06:38:54.583Z,1004.44
2018-09-15T06:39:58.844Z,1004.44
2018-09-15T06:41:05.272Z,1004.42
2018-09-15T06:42:11.551Z,1004.41
2018-09-15T06:43:17.416Z,1004.41
2018-09-15T06:44:24.331Z,1004.43
2018-09-15T06:45:30.694Z,1004.47
2018-09-15T06:46:36.479Z,1004.49
2018-09-15T06:47:42.857Z,1004.49
2018-09-15T06:48:49.704Z,1004.50
2018-09-15T06:49:56.017Z,1004.51
2018-09-15T06:51:02.401Z,1004.55
2018-09-15T06:52:08.758Z,1004.52
2018-09-15T06:53:14.631Z,1004.49
2018-09-15T06:54:21.489Z,1004.53
2018-09-15T06:55:27.843Z,1004.59
2018-09-15T06:56:33.705Z,1004.59
2018-09-15T06:57:40.064Z,1004.61
2018-09-15T06:58:46.431Z,1004.64
2018-09-15T06:59:53.285Z,1004.65
2018-09-15T07:00:59.771Z,1004.65
2018-09-15T07:02:05.505Z,1004.68
2018-09-15T07:03:12.368Z,1004.67
2018-09-15T07:04:18.273Z,1004.70
2018-09-15T07:05:25.100Z,1004.66
2018-09-15T07:06:30.954Z,1004.68
2018-09-15T07:07:37.315Z,1004.67
2018-09-15T07:08:44.170Z,1004.69
2018-09-15T07:09:50.029Z,1004.74
2018-09-15T07:10:56.389Z,1004.75
2018-09-15T07:12:03.270Z,1004.73
2018-09-15T07:13:09.595Z,1004.76
2018-09-15T07:14:15.959Z,1004.79
2018-09-15T07:15:22.324Z,1004.85
2018-09-15T07:16:28.710Z,1004.87
2018-09-15T07:17:35.037Z,1004.85
2018-09-15T07:18:41.398Z,1004.86
2018-09-15T07:19:47.288Z,1004.83
2018-09-15T07:20:53.641Z,1004.87
2018-09-15T07:21:59.987Z,1004.82
2018-09-15T07:23:06.825Z,1004.84
2018-09-15T07:24:12.706Z,1004.89
2018-09-15T07:25:19.064Z,1004.90
2018-09-15T07:26:25.418Z,1004.89
2018-09-15T07:27:32.287Z,1004.93
2018-09-15T07:28:38.645Z,1004.96
2018-09-15T07:29:44.531Z,1005.00
2018-09-15T07:30:51.402Z,1005.04
2018-09-15T07:31:57.360Z,1005.01
2018-09-15T07:33:04.128Z,1005.03
2018-09-15T07:34:09.997Z,1005.01
2018-09-15T07:35:16.371Z,1005.02
2018-09-15T07:36:23.270Z,1005.01
2018-09-15T07:37:29.141Z,1005.01
2018-09-15T07:38:35.490Z,1005.05
2018-09-15T07:39:41.876Z,1005.02
2018-09-15T07:40:48.738Z,1005.03
2018-09-15T07:41:55.112Z,1005.04
2018-09-15T07:43:01.483Z,1004.99
2018-09-15T07:44:07.866Z,1005.00
2018-09-15T07:45:13.759Z,1004.97
2018-09-15T07:46:20.625Z,1005.05
2018-09-15T07:47:27.017Z,1004.97
2018-09-15T07:48:32.930Z,1004.96
2018-09-15T07:49:39.793Z,1005.04
2018-09-15T07:50:46.193Z,1005.03
2018-09-15T07:51:52.549Z,1005.05
2018-09-15T07:52:58.468Z,1005.08
2018-09-15T07:54:05.347Z,1005.11
2018-09-15T07:55:11.764Z,1005.07
2018-09-15T07:56:17.641Z,1005.06
2018-09-15T07:57:24.645Z,1005.04
2018-09-15T07:58:30.464Z,1005.11
2018-09-15T07:59:36.884Z,1005.04
2018-09-15T08:00:43.798Z,1005.06
2018-09-15T08:01:49.719Z,1005.07
2018-09-15T08:02:56.637Z,1005.15
2018-09-15T08:04:02.565Z,1005.04
2018-09-15T08:05:09.509Z,1004.99
2018-09-15T08:06:15.921Z,1005.02
2018-09-15T08:07:21.859Z,1005.04
2018-09-15T08:08:28.774Z,1005.04
2018-09-15T08:09:34.713Z,1005.04
2018-09-15T08:10:41.654Z,1004.99
2018-09-15T08:11:48.078Z,1005.03
2018-09-15T08:12:54.519Z,1005.04
2018-09-15T08:14:01.957Z,1005.03
2018-09-15T08:15:06.906Z,1005.05
2018-09-15T08:16:13.365Z,1005.03
2018-09-15T08:17:20.304Z,1005.01
2018-09-15T08:18:26.759Z,1005.01
2018-09-15T08:19:32.702Z,1005.02
2018-09-15T08:20:39.690Z,1005.02
2018-09-15T08:21:46.201Z,1005.05
2018-09-15T08:22:52.548Z,1004.96
2018-09-15T08:23:58.999Z,1005.00
2018-09-15T08:25:04.962Z,1005.00
2018-09-15T08:26:11.974Z,1005.04
2018-09-15T08:27:18.403Z,1005.06
2018-09-15T08:28:24.339Z,1005.02
2018-09-15T08:29:31.310Z,1005.04
2018-09-15T08:30:37.752Z,1005.07
2018-09-15T08:31:43.722Z,1005.06
2018-09-15T08:32:50.175Z,1005.10
2018-09-15T08:33:57.129Z,1005.11
2018-09-15T08:35:03.613Z,1005.13
2018-09-15T08:36:09.593Z,1005.14
2018-09-15T08:37:16.105Z,1005.15
2018-09-15T08:38:22.517Z,1005.11
2018-09-15T08:39:28.986Z,1005.13
2018-09-15T08:40:35.955Z,1005.18
2018-09-15T08:41:41.968Z,1005.22
2018-09-15T08:42:48.421Z,1005.16
2018-09-15T08:43:55.389Z,1005.16
2018-09-15T08:45:01.858Z,1005.16
2018-09-15T08:46:08.336Z,1005.19
2018-09-15T08:47:14.316Z,1005.23
2018-09-15T08:48:20.851Z,1005.23
2018-09-15T08:49:27.290Z,1005.19
2018-09-15T08:50:34.267Z,1005.20
2018-09-15T08:51:40.245Z,1005.19
2018-09-15T08:52:46.722Z,1005.24
2018-09-15T08:53:53.206Z,1005.19
2018-09-15T08:54:59.698Z,1005.21
2018-09-15T08:56:06.183Z,1005.20
2018-09-15T08:57:13.290Z,1005.18
2018-09-15T08:58:19.162Z,1005.24
2018-09-15T08:59:25.653Z,1005.23
2018-09-15T09:00:32.632Z,1005.22
2018-09-15T09:01:38.640Z,1005.20
2018-09-15T09:02:45.132Z,1005.17
2018-09-15T09:03:51.687Z,1005.19
2018-09-15T09:04:59.274Z,1005.21
2018-09-15T09:06:05.116Z,1005.16
2018-09-15T09:07:11.133Z,1005.16
2018-09-15T09:08:17.656Z,1005.20
2018-09-15T09:09:24.640Z,1005.19
2018-09-15T09:10:30.632Z,1005.18
2018-09-15T09:11:37.147Z,1005.17
2018-09-15T09:12:43.650Z,1005.16
2018-09-15T09:13:50.628Z,1005.17
2018-09-15T09:14:57.146Z,1005.15
2018-09-15T09:16:03.652Z,1005.17
2018-09-15T09:17:10.164Z,1005.17
2018-09-15T09:18:16.296Z,1005.16
2018-09-15T09:19:22.681Z,1005.15
2018-09-15T09:20:29.192Z,1005.14
2018-09-15T09:21:36.276Z,1005.19
2018-09-15T09:22:42.727Z,1005.22
2018-09-15T09:23:48.740Z,1005.19
2018-09-15T09:24:55.750Z,1005.22
2018-09-15T09:26:02.440Z,1005.20
2018-09-15T09:27:08.759Z,1005.26
2018-09-15T09:28:14.801Z,1005.27
2018-09-15T09:29:21.792Z,1005.25
2018-09-15T09:30:27.819Z,1005.22
2018-09-15T09:31:34.872Z,1005.23
2018-09-15T09:32:40.861Z,1005.19
2018-09-15T09:33:47.399Z,1005.22
2018-09-15T09:34:54.442Z,1005.24
2018-09-15T09:36:00.936Z,1005.19
2018-09-15T09:37:06.952Z,1005.15
2018-09-15T09:38:13.537Z,1005.16
2018-09-15T09:39:20.505Z,1005.14
2018-09-15T09:40:27.531Z,1005.14
2018-09-15T09:41:33.197Z,1005.12
2018-09-15T09:42:40.084Z,1005.12
2018-09-15T09:43:46.626Z,1005.10
2018-09-15T09:44:53.161Z,1005.07
2018-09-15T09:45:59.193Z,1005.09
2018-09-15T09:47:06.231Z,1005.07
2018-09-15T09:48:12.790Z,1005.08
2018-09-15T09:49:18.797Z,1005.13
2018-09-15T09:50:25.322Z,1005.12
2018-09-15T09:51:31.882Z,1005.11
2018-09-15T09:52:38.395Z,1005.10
2018-09-15T09:53:45.442Z,1005.08
2018-09-15T09:54:51.475Z,1005.09
2018-09-15T09:55:58.511Z,1005.06
2018-09-15T09:57:05.053Z,1005.10
2018-09-15T09:58:11.096Z,1005.10
2018-09-15T09:59:18.156Z,1005.15
2018-09-15T10:00:24.696Z,1005.21
2018-09-15T10:01:31.277Z,1005.14
2018-09-15T10:02:37.779Z,1005.15
2018-09-15T10:03:43.837Z,1005.19
2018-09-15T10:04:50.892Z,1005.15
2018-09-15T10:05:56.930Z,1005.10
2018-09-15T10:07:03.500Z,1005.09
2018-09-15T10:08:10.527Z,1005.07
2018-09-15T10:09:17.069Z,1005.08
2018-09-15T10:10:23.117Z,1004.97
2018-09-15T10:11:29.662Z,1004.99
2018-09-15T10:12:36.713Z,1005.08
2018-09-15T10:13:42.840Z,1005.06
2018-09-15T10:14:49.323Z,1005.01
2018-09-15T10:15:56.406Z,1004.97
2018-09-15T10:17:02.434Z,1004.98
2018-09-15T10:18:09.003Z,1004.99
2018-09-15T10:19:15.567Z,1005.04
2018-09-15T10:20:22.111Z,1005.10
2018-09-15T10:21:29.336Z,1005.06
2018-09-15T10:22:35.248Z,1005.02
2018-09-15T10:23:42.321Z,1005.06
2018-09-15T10:24:48.370Z,1005.05
2018-09-15T10:25:54.932Z,1005.02
2018-09-15T10:27:01.502Z,1005.06
2018-09-15T10:28:08.056Z,1004.99
2018-09-15T10:29:15.127Z,1005.00
2018-09-15T10:30:21.695Z,1004.95
2018-09-15T10:31:28.275Z,1004.93
2018-09-15T10:32:34.827Z,1004.95
2018-09-15T10:33:40.895Z,1005.02
2018-09-15T10:34:47.983Z,1005.04
2018-09-15T10:35:54.057Z,1005.03
2018-09-15T10:37:00.671Z,1005.00
2018-09-15T10:38:07.225Z,1004.98
2018-09-15T10:39:13.828Z,1005.05
2018-09-15T10:40:20.497Z,1005.09
2018-09-15T10:41:27.026Z,1005.09
2018-09-15T10:42:33.655Z,1005.12
2018-09-15T10:43:40.249Z,1005.11
2018-09-15T10:44:46.874Z,1005.10
2018-09-15T10:45:53.555Z,1005.13
2018-09-15T10:47:00.098Z,1005.16
2018-09-15T10:48:06.724Z,1005.14
2018-09-15T10:49:13.333Z,1005.06
2018-09-15T10:50:20.459Z,1005.08
2018-09-15T10:51:27.064Z,1005.13
2018-09-15T10:52:33.212Z,1005.12
2018-09-15T10:53:39.832Z,1005.15
2018-09-15T10:54:46.455Z,1005.10
2018-09-15T10:55:53.100Z,1005.11
2018-09-15T10:56:59.722Z,1005.07
2018-09-15T10:58:06.372Z,1005.06
2018-09-15T10:59:12.965Z,1005.07
2018-09-15T11:00:19.614Z,1005.04
2018-09-15T11:01:26.211Z,1005.08
2018-09-15T11:02:32.838Z,1005.01
2018-09-15T11:03:39.463Z,1005.05
2018-09-15T11:04:46.112Z,1004.97
2018-09-15T11:05:53.282Z,1004.90
2018-09-15T11:06:59.886Z,1004.91
2018-09-15T11:08:06.022Z,1004.95
2018-09-15T11:09:13.169Z,1004.93
2018-09-15T11:10:19.836Z,1004.91
2018-09-15T11:11:25.970Z,1004.89
2018-09-15T11:12:32.599Z,1004.91
2018-09-15T11:13:39.336Z,1004.93
2018-09-15T11:14:46.379Z,1004.94
2018-09-15T11:15:52.537Z,1004.94
2018-09-15T11:16:59.187Z,1004.91
2018-09-15T11:18:05.850Z,1004.93
2018-09-15T11:19:12.532Z,1004.92
2018-09-15T11:20:19.718Z,1004.89
2018-09-15T11:21:26.411Z,1004.91
2018-09-15T11:22:32.684Z,1004.89
2018-09-15T11:23:39.390Z,1004.93
2018-09-15T11:24:46.133Z,1004.89
2018-09-15T11:25:52.864Z,1004.86
2018-09-15T11:26:59.625Z,1004.87
2018-09-15T11:28:06.443Z,1004.83
2018-09-15T11:29:13.246Z,1004.80
2018-09-15T11:30:20.153Z,1004.83
2018-09-15T11:31:27.059Z,1004.80
2018-09-15T11:32:34.008Z,1004.74
2018-09-15T11:33:40.943Z,1004.76
2018-09-15T11:34:48.356Z,1004.77
2018-09-15T11:35:55.281Z,1004.73
2018-09-15T11:37:01.684Z,1004.70
2018-09-15T11:38:08.608Z,1004.75
2018-09-15T11:39:16.040Z,1004.77
2018-09-15T11:40:22.557Z,1004.75
2018-09-15T11:41:29.609Z,1004.73
2018-09-15T11:42:36.692Z,1004.69
2018-09-15T11:43:43.790Z,1004.73
2018-09-15T11:44:50.846Z,1004.73
2018-09-15T11:45:57.921Z,1004.83
2018-09-15T11:47:05.013Z,1004.77
2018-09-15T11:48:12.653Z,1004.69
2018-09-15T11:49:19.337Z,1004.73
2018-09-15T11:50:26.494Z,1004.71
2018-09-15T11:51:33.603Z,1004.67
2018-09-15T11:52:41.215Z,1004.72
2018-09-15T11:53:47.753Z,1004.69
2018-09-15T11:54:54.783Z,1004.71
2018-09-15T11:56:02.316Z,1004.72
2018-09-15T11:57:08.750Z,1004.72
2018-09-15T11:58:15.722Z,1004.70
2018-09-15T11:59:23.160Z,1004.76
2018-09-15T12:00:30.121Z,1004.74
2018-09-15T12:01:36.624Z,1004.78
2018-09-15T12:02:44.133Z,1004.84
2018-09-15T12:03:51.113Z,1004.78
2018-09-15T12:04:57.702Z,1004.80
2018-09-15T12:06:04.768Z,1004.79
2018-09-15T12:07:11.893Z,1004.79
2018-09-15T12:08:19.067Z,1004.81
2018-09-15T12:09:26.301Z,1004.82
2018-09-15T12:10:34.025Z,1004.78
2018-09-15T12:11:40.747Z,1004.80
2018-09-15T12:12:47.948Z,1004.84
2018-09-15T12:13:55.109Z,1004.82
2018-09-15T12:15:02.259Z,1004.80
2018-09-15T12:16:09.360Z,1004.76
2018-09-15T12:17:16.469Z,1004.80
2018-09-15T12:18:23.540Z,1004.85
2018-09-15T12:19:30.639Z,1004.82
2018-09-15T12:20:38.278Z,1004.75
2018-09-15T12:21:44.809Z,1004.82
2018-09-15T12:22:51.698Z,1004.83
2018-09-15T12:23:58.699Z,1004.85
2018-09-15T12:25:05.674Z,1004.80
2018-09-15T12:26:13.147Z,1004.79
2018-09-15T12:27:19.652Z,1004.80
2018-09-15T12:28:27.172Z,1004.81
2018-09-15T12:29:33.706Z,1004.81
2018-09-15T12:30:40.732Z,1004.80
2018-09-15T12:31:47.745Z,1004.77
2018-09-15T12:32:54.774Z,1004.82
2018-09-15T12:34:01.780Z,1004.86
2018-09-15T12:35:08.798Z,1004.85
2018-09-15T12:36:15.822Z,1004.83
2018-09-15T12:38:30.405Z,1004.89
2018-09-15T12:39:36.965Z,1004.88
2018-09-15T12:40:43.947Z,1004.90
2018-09-15T12:41:51.477Z,1004.93
2018-09-15T12:42:58.991Z,1004.92
2018-09-15T12:44:05.522Z,1004.86
2018-09-15T12:45:12.139Z,1004.85
2018-09-15T12:46:19.584Z,1004.85
2018-09-15T12:47:26.100Z,1004.86
2018-09-15T12:48:33.113Z,1004.84
2018-09-15T12:49:40.608Z,1004.80
2018-09-15T12:50:47.116Z,1004.83
2018-09-15T12:51:54.679Z,1004.86
2018-09-15T12:53:01.612Z,1004.86
2018-09-15T12:54:08.592Z,1004.78
2018-09-15T12:55:15.074Z,1004.78
2018-09-15T12:56:22.558Z,1004.78
2018-09-15T12:57:29.547Z,1004.76
2018-09-15T12:58:36.511Z,1004.80
2018-09-15T12:59:43.025Z,1004.77
2018-09-15T13:00:50.437Z,1004.76
2018-09-15T13:01:56.931Z,1004.83
2018-09-15T13:03:03.914Z,1004.83
2018-09-15T13:04:10.885Z,1004.88
2018-09-15T13:05:17.874Z,1004.84
2018-09-15T13:06:25.445Z,1004.85
2018-09-15T13:07:31.868Z,1004.82
2018-09-15T13:08:38.855Z,1004.79
2018-09-15T13:09:45.889Z,1004.81
2018-09-15T13:10:52.827Z,1004.79
2018-09-15T13:11:59.826Z,1004.79
2018-09-15T13:13:07.312Z,1004.78
2018-09-15T13:14:13.849Z,1004.71
2018-09-15T13:15:20.943Z,1004.69
2018-09-15T13:16:28.472Z,1004.73
2018-09-15T13:17:35.590Z,1004.70
2018-09-15T13:18:42.233Z,1004.64
2018-09-15T13:19:49.371Z,1004.64
2018-09-15T13:20:56.547Z,1004.66
2018-09-15T13:22:03.727Z,1004.68
2018-09-15T13:23:10.941Z,1004.59
2018-09-15T13:24:18.290Z,1004.63